Event Mercenaries, Inc.

2016 Spartan Half Marathon & 5K

Age Group Results

May 07, 2016


Results by Event Mercenaries, Inc.


Men: Top Finishers 0-10 11-13 14-19 20-29 30-39 40-49 50-59 60-99
Women: Top Finishers 0-10 11-13 14-19 20-29 30-39 40-49 50-59 60-99

5K RUN

Top

Female OPEN Winners

Place Name City Bib No Age Overall Chip Time Gun Time Pace
1 Ashley Neff Davidson NC 375 33 11 19:51.1 19:51.1 6:23/M
Top

Male OPEN Winners

Place Name City Bib No Age Overall Chip Time Gun Time Pace
1 Jacob Baugher Charlotte NC 17 15 1 17:11.8 17:11.8 5:32/M
Top

Female 10 and Under

Place Name City Bib No Age Overall Chip Time Gun Time Pace
1 Savanna Bush Denver NC 37 10 69 24:17.7 24:17.7 7:48/M
2 Isabella Magryta Mooresville NC 175 10 116 26:28.9 26:28.9 8:31/M
3 Camryn Burton Cornelius NC 349 10 127 27:07.8 27:07.8 8:43/M
4 Riley Haines Huntersville NC 127 10 175 30:13.9 30:13.9 9:43/M
5 Lauren Tellefsen Davidson NC 282 7 218 32:23.5 32:23.5 10:25/M
6 Anna Teckenbrock Cornelius NC 278 9 220 32:46.2 32:46.2 10:32/M
7 Sarah McNelly Huntersville NC 186 9 221 32:46.4 32:46.4 10:32/M
8 Lily Blocker Denver NC 21 9 230 33:07.9 33:07.9 10:39/M
9 Sierra Pavlick Denver NC 214 9 242 34:40.2 34:40.2 11:09/M
10 Katelyn Hipple Huntersville NC 354 9 249 35:22.5 35:22.5 11:22/M
11 Atherton Wolding Huntersville NC 320 8 256 35:37.3 35:37.3 11:27/M
12 Kate Whittington Huntersville NC 316 8 260 35:52.7 35:52.7 11:32/M
13 Emma Gray Huntersville NC 103 10 263 35:55.9 35:55.9 11:33/M
14 Adelaide Wells Concord NC 307 7 270 36:02.8 36:02.8 11:35/M
15 Lacy Addison Huntersville NC 387 10 271 36:02.8 36:02.8 11:35/M
16 Parker Esque Davidson NC 88 10 273 36:06.7 36:06.7 11:36/M
17 Kayla Rabalais denver NC 227 10 275 36:12.6 36:12.6 11:38/M
18 Anna Barner Sherrills Ford NC 13 10 278 36:16.8 36:16.8 11:40/M
19 Brenna Barbier Denver NC 11 8 286 37:28.7 37:28.7 12:03/M
20 maddie matz denver NC 178 8 287 37:29.5 37:29.5 12:03/M
21 Madeline Moton Davidson NC 198 3 290 37:52.9 37:52.9 12:11/M
22 Emma Nowak Huntersville NC 204 8 295 38:46.8 38:46.8 12:28/M
23 Breelyn Fredrickson Huntersville NC 91 8 305 39:41.4 39:41.4 12:46/M
24 Reagan Waldau Davidson NC 364 6 307 39:47.5 39:47.5 12:48/M
25 molly matz denver NC 180 8 312 40:49.5 40:49.5 13:07/M
26 Diana Chung Huntersville NC 396 8 320 43:25.5 43:25.5 13:58/M
27 Jaclyn Hipple Huntersville NC 355 6 327 44:10.3 44:10.3 14:12/M
28 Libby Swaney Huntersville NC 274 7 328 44:10.7 44:10.7 14:12/M
29 Marin Sullivan Huntersville NC 270 9 329 44:25.7 44:25.7 14:17/M
30 Katherine Selfridge Huntersville NC 376 6 343 47:55.5 47:55.5 15:24/M
31 Rebecca LaRuffa Davidson NC 169 10 347 48:45.6 48:45.6 15:41/M
32 Bailey Rowles Huntersville NC 241 8 358 53:38.2 53:38.2 17:15/M
33 Clare Vesely charlotte NC 297 9 363 1:08:41.9 1:08:41.9 22:05/M
Top

Male 10 and Under

Place Name City Bib No Age Overall Chip Time Gun Time Pace
1 Braden Burton Cornelius NC 348 8 64 23:59.7 23:59.7 7:43/M
2 Garrett Cupp Denver NC 60 10 83 25:04.5 25:04.5 8:04/M
3 Alex Robinson Denver NC 239 10 92 25:26.2 25:26.2 8:11/M
4 Griffin Small Davidson NC 257 9 102 26:03.3 26:03.3 8:23/M
5 Tucker Caulder Stanley NC 40 10 126 27:07.7 27:07.7 8:43/M
6 Thomas Gosselin Mooresville NC 390 10 157 29:17.1 29:17.1 9:25/M
7 Josh Teckenbrock Cornelius NC 279 7 178 30:20.1 30:20.1 9:45/M
8 Simon Davis Mooresville NC 69 10 187 30:33.1 30:33.1 9:49/M
9 John Bragg Huntersville NC 29 10 206 31:52.7 31:52.7 10:15/M
10 Treyton Skaff Davidson NC 342 9 207 31:53.2 31:53.2 10:15/M
11 Brandon Bray huntersville NC 32 10 239 34:21.6 34:21.6 11:03/M
12 Owen Swaney Huntersville NC 275 10 254 35:30.4 35:30.4 11:25/M
13 Cooper Bryan Davidson NC 35 10 257 35:41.5 35:41.5 11:28/M
14 Ethan Tomko Cornelius NC 289 8 264 35:56.2 35:56.2 11:33/M
15 Keenan Addis Davidson NC 1 9 315 41:30.1 41:30.1 13:21/M
Top

Female 11 to 13

Place Name City Bib No Age Overall Chip Time Gun Time Pace
1 Sophia Kritzer Huntersville NC 166 11 46 22:40.4 22:40.4 7:17/M
2 Paulina Levi Huntersville NC 362 11 47 22:41.4 22:41.4 7:18/M
3 Cameron Koster Mooresville NC 162 11 52 23:05.2 23:05.2 7:25/M
4 Carly Thompson Cornelius NC 287 12 60 23:49.4 23:49.4 7:39/M
5 Carley Visser Cornelius NC 302 13 63 23:57.5 23:57.5 7:42/M
6 Mia Haglund Cornelius NC 122 12 70 24:17.8 24:17.8 7:48/M
7 Katie Skerpon Davidson NC 255 11 71 24:19.8 24:19.8 7:49/M
8 Kelbi Pierce Denver NC 223 11 72 24:21.7 24:21.7 7:50/M
9 Mia Roberson Huntersville NC 238 12 81 25:02.3 25:02.3 8:03/M
10 Caitlin Hays Davidson NC 141 12 85 25:12.0 25:12.0 8:06/M
11 Louisa Terry Davidson NC 380 12 100 25:57.8 25:57.8 8:21/M
12 Rebecca Wilz Charlotte NC 318 12 105 26:06.1 26:06.1 8:24/M
13 Taylor Simoes Huntersville NC 254 12 110 26:12.6 26:12.6 8:25/M
14 Mariana Soares Charlotte NC 261 12 113 26:23.4 26:23.4 8:29/M
15 Lyndon Cock Davidson NC 345 12 114 26:26.6 26:26.6 8:30/M
16 Laney Greif Cornelius NC 107 12 117 26:30.3 26:30.3 8:31/M
17 Evan Harrison Huntersville NC 138 12 119 26:34.6 26:34.6 8:33/M
18 Natalie Murphy Huntersville NC 332 12 125 27:00.0 27:00.0 8:41/M
19 Isabella Kritzer Huntersville NC 164 13 152 29:04.7 29:04.7 9:21/M
20 Lulu Scruggs Huntersvilke NC 340 11 154 29:07.3 29:07.3 9:22/M
21 Mary Hendrix Davidson NC 366 13 161 29:30.6 29:30.6 9:29/M
22 Megan Rowan Huntersville NC 339 13 169 29:51.6 29:51.6 9:36/M
23 Morgan Thomas Huntersville NC 285 11 170 29:51.6 29:51.6 9:36/M
24 Hope Baugher Charlotte NC 16 13 173 30:02.9 30:02.9 9:39/M
25 Kendall Esque Davidson NC 87 12 174 30:12.9 30:12.9 9:43/M
26 Ella Larson Mooresville NC 379 11 188 30:36.5 30:36.5 9:50/M
27 Katelyn Mastrean Mooresville NC 177 12 224 32:59.9 32:59.9 10:36/M
28 Jenavive Smith Stanley NC 333 11 228 33:05.4 33:05.4 10:38/M
29 Alice Wenzel Huntersville NC 310 12 232 33:19.1 33:19.1 10:43/M
30 Kara DuBois Huntersville NC 74 12 244 34:48.9 34:48.9 11:11/M
31 Ava Karaut Davidson NC 346 12 245 34:49.1 34:49.1 11:12/M
32 Cadence Duckworth Huntersville NC 76 11 246 35:07.5 35:07.5 11:17/M
33 Abby Horton Huntersville NC 149 12 247 35:07.5 35:07.5 11:17/M
34 Landen Phillips Huntersville NC 217 12 258 35:50.2 35:50.2 11:31/M
35 Brooke Mooney Troutman NC 193 12 259 35:50.2 35:50.2 11:31/M
36 Caitlin Visser Cornelius NC 301 12 261 35:54.0 35:54.0 11:33/M
37 Michaela Wolfe Huntersville NC 336 11 269 36:02.2 36:02.2 11:35/M
38 Hannah Dumser Mooresville NC 78 13 292 38:10.5 38:10.5 12:16/M
39 Sydney Hooper Huntersville NC 384 11 330 45:02.7 45:02.7 14:29/M
40 Kyla Dumser Mooresville NC 79 11 334 45:56.1 45:56.1 14:46/M
41 Alexis Rowles Huntersville NC 240 11 335 45:56.4 45:56.4 14:46/M
42 Hope Mullins Cornelius NC 200 12 348 49:50.0 49:50.0 16:01/M
43 Kate Vesely charlotte NC 299 12 349 49:50.1 49:50.1 16:01/M
Top

Male 11 to 13

Place Name City Bib No Age Overall Chip Time Gun Time Pace
1 Thomas Magryta Mooresville NC 176 12 13 19:59.2 19:59.2 6:26/M
2 Jacob Lee Davidson NC 352 12 23 20:54.8 20:54.8 6:43/M
3 Nicolas Vecchiarello Huntersville NC 295 12 24 20:55.3 20:55.3 6:44/M
4 Devin Williams Huntersville NC 372 13 27 21:36.5 21:36.5 6:57/M
5 Casey Koster Mooresville NC 163 12 30 21:45.2 21:45.2 7:00/M
6 Jack VonCanon Davidson NC 303 12 32 21:50.6 21:50.6 7:01/M
7 Matthew Westbrook Hunersville NC 313 13 34 22:02.6 22:02.6 7:05/M
8 Christian Keel Mooresville NC 155 12 36 22:10.1 22:10.1 7:08/M
9 Sam Kelley Huntersville NC 157 12 38 22:20.7 22:20.7 7:11/M
10 Matthew Ferguson Davidson NC 329 12 39 22:20.8 22:20.8 7:11/M
11 Davis Pharr Davidson, NC 216 13 59 23:41.7 23:41.7 7:37/M
12 Arjun Thakore Concord NC 283 12 68 24:13.7 24:13.7 7:47/M
13 Hank Wolfe Huntersville NC 335 12 75 24:36.6 24:36.6 7:55/M
14 Matthew Radin Huntersville NC 228 11 79 24:45.1 24:45.1 7:57/M
15 Luke Allen Iron Station NC 5 11 80 24:45.1 24:45.1 7:57/M
16 Dylan Koontz Huntersville NC 159 13 86 25:13.3 25:13.3 8:06/M
17 Lawrence Chung Huntersville NC 394 12 90 25:21.0 25:21.0 8:09/M
18 Tobby Rivers Mooresville NC 236 11 97 25:47.6 25:47.6 8:17/M
19 Gavin McLean 360 11 98 25:48.3 25:48.3 8:18/M
20 Riley Hall Charlotte NC 129 11 121 26:42.5 26:42.5 8:35/M
21 Daniel Ahearn Davidson NC 322 11 123 26:58.7 26:58.7 8:40/M
22 Kaden Fredrickson Huntersville NC 94 11 128 27:09.5 27:09.5 8:44/M
23 Joseph Underwood Denver NC 292 12 131 27:35.6 27:35.6 8:52/M
24 Mason Akerblom Denver NC 4 11 132 27:35.7 27:35.7 8:52/M
25 Quentin Small Davidson NC 258 12 160 29:30.5 29:30.5 9:29/M
26 lillian grennan cornelius NC 112 12 168 29:51.4 29:51.4 9:36/M
27 Ryan Pawlowski Charlotte NC 215 13 171 29:57.2 29:57.2 9:38/M
28 Natnael Price Mooresville NC 226 12 183 30:23.0 30:23.0 9:46/M
29 Isaiah LaRuffa Davidson NC 168 12 184 30:23.4 30:23.4 9:46/M
30 Brandon Jones Huntersville NC 152 13 189 30:41.6 30:41.6 9:52/M
31 Conner Garren Mooresville NC 97 12 219 32:43.5 32:43.5 10:31/M
32 Ben Swaney Huntersville NC 272 11 234 33:36.1 33:36.1 10:48/M
33 Mahmoud Banawan Huntersville NC 9 12 289 37:48.9 37:48.9 12:09/M
34 Clay Harper Stanley NC 135 11 298 38:52.8 38:52.8 12:30/M
35 Andrew Gribbins Stanley NC 114 11 309 40:10.3 40:10.3 12:55/M
36 Noah Addis Davidson NC 3 12 314 41:24.9 41:24.9 13:19/M
37 Artie Chaney Mooresville NC 42 12 331 45:27.3 45:27.3 14:37/M
38 Matthew McGinnis Stanley NC 182 11 332 45:40.2 45:40.2 14:41/M
39 Will Clark Huntersville NC 47 12 339 46:57.6 46:57.6 15:06/M
40 Erik Olson Charlotte NC 207 12 352 53:04.2 53:04.2 17:04/M
41 Connor Davis Mooresville NC 66 12 353 53:06.8 53:06.8 17:04/M
Top

Female 14 to 19

Place Name City Bib No Age Overall Chip Time Gun Time Pace
1 Hunter Cashion Davidson NC 39 16 25 20:57.2 20:57.2 6:44/M
2 Kaylee Cortese Davidson NC 57 18 45 22:39.0 22:39.0 7:17/M
3 Vanessa Lundsten Cornelius NC 173 18 49 22:42.7 22:42.7 7:18/M
4 Morgan Whiteside Huntersville NC 315 14 62 23:53.0 23:53.0 7:41/M
5 Hannah Ostapko Huntersville NC 210 15 142 28:07.8 28:07.8 9:02/M
6 Keely Brown Davidson NC 34 19 150 29:03.6 29:03.6 9:20/M
7 Em Solomonson Huntersville NC 264 18 199 31:30.3 31:30.3 10:08/M
8 Alexa Chaney Cornelius NC 41 15 202 31:39.2 31:39.2 10:11/M
9 Anna Tellefsen Davidson NC 281 15 217 32:23.2 32:23.2 10:25/M
10 emmaline Grennan cornelius NC 111 16 229 33:05.5 33:05.5 10:38/M
11 Laura Wenzel Huntersville NC 311 19 231 33:18.9 33:18.9 10:42/M
12 Emily Huber Huntersville NC 151 17 266 35:59.4 35:59.4 11:34/M
13 Alexa Mooney Troutman NC 192 16 268 36:00.4 36:00.4 11:35/M
14 Sarah Grembecki Denver NC 110 14 274 36:08.5 36:08.5 11:37/M
15 Aivita Sholes Kings Mountain NC 251 16 303 39:35.7 39:35.7 12:44/M
Top

Male 14 to 19

Place Name City Bib No Age Overall Chip Time Gun Time Pace
1 Frank Bragg Davidson NC 28 18 2 18:09.4 18:09.4 5:50/M
2 Nate McGivern Huntersville NC 183 17 5 19:08.9 19:08.9 6:09/M
3 Boden Solomonson Huntersville NC 262 15 6 19:11.5 19:11.5 6:10/M
4 Ryan Hamilton Davidson NC 131 15 7 19:39.6 19:39.6 6:19/M
5 Ben Hoag Mooresville NC 368 15 9 19:46.6 19:46.6 6:21/M
6 Luke Whiteside Huntersville NC 314 14 10 19:50.2 19:50.2 6:23/M
7 William Gosnell Huntersville NC 102 18 17 20:11.2 20:11.2 6:29/M
8 Michael Cosby Charlotte NC 59 17 18 20:14.0 20:14.0 6:30/M
9 Kirby Bragg Huntersville NC 30 16 19 20:20.0 20:20.0 6:32/M
10 Cooper Godwin Huntersville NC 99 15 20 20:20.1 20:20.1 6:32/M
11 Eric Jones Huntersville NC 374 15 21 20:33.8 20:33.8 6:36/M
12 Ryan Moton Davidson NC 199 15 22 20:34.1 20:34.1 6:37/M
13 Adam Cosgrove Davidson NC 327 19 29 21:38.4 21:38.4 6:57/M
14 Owen Cosgrove Davidson NC 328 17 44 22:38.4 22:38.4 7:17/M
15 Calvin Blubaugh Cornelius NC 23 18 55 23:18.1 23:18.1 7:30/M
16 Matthew Gribbins Stanley NC 117 16 67 24:01.5 24:01.5 7:43/M
17 Luke Cortese Davidson NC 58 18 73 24:23.8 24:23.8 7:50/M
18 Alex Bottone Cornelius NC 24 16 93 25:26.9 25:26.9 8:11/M
19 Greyson Lorey Cornelius NC 382 16 101 25:58.6 25:58.6 8:21/M
20 Liam Ahearn Davidson NC 324 14 103 26:05.3 26:05.3 8:23/M
21 John George Guise Davidson NC 121 18 135 27:40.2 27:40.2 8:54/M
22 Ben Webb Cornelius NC 306 16 155 29:09.1 29:09.1 9:22/M
23 Brandon Ellington Davidson NC 81 15 190 30:44.3 30:44.3 9:53/M
24 Jonathan Gribbins Stanley NC 116 14 297 38:49.6 38:49.6 12:29/M
25 Matthew Clark Huntersville NC 46 16 360 54:20.3 54:20.3 17:28/M
Top

Female 20 to 29

Place Name City Bib No Age Overall Chip Time Gun Time Pace
1 Alexis Mitchell Cornelius NC 191 22 35 22:07.4 22:07.4 7:07/M
2 Jamie Copenhaver Cornelius NC 53 25 88 25:19.1 25:19.1 8:08/M
3 Anna Diggs Huntersville NC 357 20 96 25:44.1 25:44.1 8:16/M
4 Lauren Barringer Cornelius NC 326 29 99 25:56.0 25:56.0 8:20/M
5 Ashley Gargus Charlotte NC 338 26 236 33:54.7 33:54.7 10:54/M
6 Kara Helf Huntersville NC 146 27 300 39:12.3 39:12.3 12:36/M
7 Kate Kopecky Charlotte NC 161 29 357 53:27.8 53:27.8 17:11/M
Top

Male 20 to 29

Place Name City Bib No Age Overall Chip Time Gun Time Pace
1 James Kopecky Charlotte NC 160 28 16 20:05.4 20:05.4 6:27/M
2 Tony Mangini Cornelius NC 358 28 53 23:08.7 23:08.7 7:26/M
3 Jannik Steffen Davidson NC 266 21 74 24:35.0 24:35.0 7:54/M
4 Miles Copenhaver Cornelius NC 54 26 76 24:40.0 24:40.0 7:56/M
5 Andrew Dearmin 386 27 91 25:25.8 25:25.8 8:10/M
6 Kyle Dembart New Bern NC 392 20 156 29:15.6 29:15.6 9:24/M
7 Timmons Morketter Charlotte NC 389 28 185 30:28.4 30:28.4 9:48/M
Top

Female 30 to 39

Place Name City Bib No Age Overall Chip Time Gun Time Pace
1 Stacey Dalby Concord NC 64 30 15 20:03.5 20:03.5 6:27/M
2 Lori Ackerman Davidson NC 377 37 77 24:41.4 24:41.4 7:56/M
3 Robyn Gonzales Charlotte NC 385 34 84 25:07.5 25:07.5 8:05/M
4 Amy Teckenbrock Cornelius NC 277 39 179 30:20.3 30:20.3 9:45/M
5 Hillary Parsom Charlotte NC 388 30 186 30:29.2 30:29.2 9:48/M
6 Lori Burton Cornelius NC 347 38 204 31:48.3 31:48.3 10:14/M
7 Jaime Cordero Huntersville NC 55 32 223 32:49.5 32:49.5 10:33/M
8 Shannon Pavlick Denver NC 213 31 241 34:39.7 34:39.7 11:08/M
9 Ashley Erwin Huntersville NC 85 36 267 36:00.3 36:00.3 11:35/M
10 Emily Wells Concord NC 308 37 272 36:02.9 36:02.9 11:35/M
11 Sherene Banawan Huntersville NC 10 30 288 37:48.3 37:48.3 12:09/M
12 Kellie Nowak Huntersville NC 205 37 296 38:47.3 38:47.3 12:28/M
13 Jamie Fredrickson Huntersville NC 93 36 304 39:41.1 39:41.1 12:46/M
14 Dana Degan Mooresville NC 71 31 318 42:41.0 42:41.0 13:43/M
15 Jacqui Degan Swansboro NC 72 38 326 44:02.0 44:02.0 14:10/M
16 Rebecca Hefner charlotte NC 145 38 340 46:57.6 46:57.6 15:06/M
17 Jennifer Selfridge Huntersville NC 249 35 342 47:55.4 47:55.4 15:24/M
Top

Male 30 to 39

Place Name City Bib No Age Overall Chip Time Gun Time Pace
1 Gregory Dalby Concord NC 63 30 26 21:35.2 21:35.2 6:56/M
2 Ashley Ackerman Davidson NC 378 37 28 21:38.1 21:38.1 6:57/M
3 Nate VanWassenhove Mooresville NC 294 35 31 21:49.8 21:49.8 7:01/M
4 Jacob Page Huntersville NC 212 31 51 23:00.7 23:00.7 7:24/M
5 Alex Miller Cornelius NC 189 34 54 23:16.6 23:16.6 7:29/M
6 Jason Ray Davidson NC 229 33 57 23:37.7 23:37.7 7:36/M
7 Jonathan Ray Charlotte NC 230 30 58 23:38.9 23:38.9 7:36/M
8 Wasim Alabed Cornelius NC 397 38 78 24:44.4 24:44.4 7:57/M
9 Mark Hefner Charlotte NC 144 39 104 26:05.5 26:05.5 8:23/M
10 Dario Motomochi Mooresville NC 195 36 115 26:26.7 26:26.7 8:30/M
11 Tyler Elliott Cornelius NC 83 38 133 27:36.7 27:36.7 8:52/M
12 Drake Fredrickson Huntersville NC 92 39 166 29:42.1 29:42.1 9:33/M
13 Ryan Smith Stanley NC 334 39 180 30:21.3 30:21.3 9:46/M
14 Justin Teckenbrock Cornelius NC 280 38 191 30:55.7 30:55.7 9:56/M
15 Richard Skaff Davidson NC 343 39 214 31:58.1 31:58.1 10:17/M
16 Abhishek Narang Huntersville NC 202 34 280 36:38.5 36:38.5 11:47/M
Top

Female 40 to 49

Place Name City Bib No Age Overall Chip Time Gun Time Pace
1 Ann Todd Davidson NC 381 45 106 26:06.3 26:06.3 8:24/M
2 Heather Wilz Charlotte NC 317 48 108 26:08.7 26:08.7 8:24/M
3 Christine Simoes Huntersville NC 253 43 109 26:12.6 26:12.6 8:25/M
4 Regina Phipps Cornelius NC 219 41 111 26:18.0 26:18.0 8:27/M
5 Cindy Grembecki Denver NC 109 46 122 26:43.8 26:43.8 8:35/M
6 Kim Ahearn Davidson NC 323 47 124 26:58.9 26:58.9 8:40/M
7 Nikki Greif Cornelius NC 108 49 136 27:40.7 27:40.7 8:54/M
8 Liza Gosnell Huntersville NC 100 49 138 28:02.9 28:02.9 9:01/M
9 Kelley Hannam Huntersville NC 134 46 140 28:04.6 28:04.6 9:01/M
10 Sham Ostapko Huntersville NC 211 48 143 28:08.0 28:08.0 9:03/M
11 Juli VonCanon Davidson NC 304 41 151 29:03.9 29:03.9 9:20/M
12 Michelle McLaughlin Huntersville NC 185 46 159 29:23.6 29:23.6 9:27/M
13 Shauna Salanger Huntersville NC 245 47 165 29:37.8 29:37.8 9:31/M
14 Amy Murphy Huntersville NC 331 41 167 29:47.7 29:47.7 9:35/M
15 Merribeth Butler Huntersville NC 38 49 172 30:01.3 30:01.3 9:39/M
16 Tiffany Haines Huntersville NC 128 41 176 30:14.7 30:14.7 9:43/M
17 Shannon Vecchiarello Huntersville NC 296 43 194 31:12.0 31:12.0 10:02/M
18 Krista Mooney Troutman NC 194 43 196 31:27.3 31:27.3 10:07/M
19 Shannon Davis huntersville NC 68 44 197 31:27.4 31:27.4 10:07/M
20 Asa Stroem Huntersville NC 269 43 205 31:52.1 31:52.1 10:15/M
21 Yvette Harrold Huntersville NC 140 45 211 31:54.7 31:54.7 10:15/M
22 LORIE CONDON HUNTERSVILLE NC 50 40 225 33:01.5 33:01.5 10:37/M
23 Jill Griffin Newton NC 119 45 237 33:56.7 33:56.7 10:55/M
24 Tiffany Bray huntersville NC 33 49 240 34:23.8 34:23.8 11:03/M
25 Tracy Hipple Huntersville NC 353 41 250 35:22.7 35:22.7 11:22/M
26 kathryn rivers Mooresville NC 235 43 252 35:27.1 35:27.1 11:24/M
27 Liz Jones Huntersville NC 154 44 255 35:36.4 35:36.4 11:27/M
28 Erin Bentrim Huntersville NC 20 47 276 36:16.1 36:16.1 11:40/M
29 Susan Barner Sherrills Ford NC 14 45 277 36:16.6 36:16.6 11:40/M
30 Leslie Tomko Cornelius NC 290 42 282 37:20.0 37:20.0 12:00/M
31 Beth Garren Mooresville NC 96 45 283 37:20.1 37:20.1 12:00/M
32 Stephanie Barbier Denver NC 12 41 285 37:28.4 37:28.4 12:03/M
33 Sarah Dumser Mooresville NC 80 44 293 38:10.7 38:10.7 12:16/M
34 Sandy Dacus Cornelius NC 62 45 302 39:12.5 39:12.5 12:36/M
35 Leona McLean Cornelius NC 361 41 308 39:57.5 39:57.5 12:51/M
36 megan matz denver NC 179 40 311 40:48.9 40:48.9 13:07/M
37 Leah Addis Davidson NC 2 42 316 41:46.4 41:46.4 13:26/M
38 Alice Chung Huntersville NC 393 42 319 43:23.1 43:23.1 13:57/M
39 Kim DuBois Huntersville NC 75 44 322 43:50.4 43:50.4 14:06/M
40 Cathy Swaney Huntersville NC 273 46 323 43:51.8 43:51.8 14:06/M
41 Amy Lee Davidson NC 351 41 324 43:52.8 43:52.8 14:06/M
42 Rebecca Esque Davidson NC 89 44 337 46:29.6 46:29.6 14:57/M
43 Judith Rowles Huntersville NC 243 43 338 46:50.1 46:50.1 15:04/M
44 Shannon Thomas Huntersville NC 286 45 354 53:07.7 53:07.7 17:05/M
45 Heidi Andersen Chapel Hill NC 6 40 361 55:09.6 55:09.6 17:44/M
46 Deirdre Vesely charlotte NC 298 46 362 1:08:40.1 1:08:40.1 22:05/M
Top

Male 40 to 49

Place Name City Bib No Age Overall Chip Time Gun Time Pace
1 Eric Phipps Cornelius NC 218 41 3 18:19.4 18:19.4 5:53/M
2 David Cutchins Mooresville NC 61 42 8 19:42.9 19:42.9 6:20/M
3 Chris Magryta Mooresville NC 174 45 12 19:58.8 19:58.8 6:25/M
4 Dan Gardner Davidson NC 95 42 33 21:50.8 21:50.8 7:01/M
5 Todd Keel Mooresville NC 156 41 37 22:10.6 22:10.6 7:08/M
6 Kip Chaney Charlotte NC 43 43 42 22:34.8 22:34.8 7:15/M
7 Chad Cook Charlotte NC 51 40 43 22:37.6 22:37.6 7:16/M
8 David Underwood Davidson NC 370 44 50 22:59.7 22:59.7 7:23/M
9 Manoj Thakore Concord NC 284 46 56 23:36.4 23:36.4 7:35/M
10 Mike Thompson Cornelius NC 288 40 61 23:50.5 23:50.5 7:40/M
11 Kevin Burton Cornelius NC 350 40 65 23:59.9 23:59.9 7:43/M
12 Anthony Yodice Charlotte NC 321 44 66 24:00.0 24:00.0 7:43/M
13 Kevin Stimson Davidson NC 337 46 82 25:03.0 25:03.0 8:03/M
14 Greg Hays Davidson NC 142 47 89 25:19.7 25:19.7 8:08/M
15 Mark McLaughlin Huntersville NC 184 42 94 25:30.1 25:30.1 8:12/M
16 Jeff Jones HUNTERSVILLE NC 153 47 95 25:37.5 25:37.5 8:14/M
17 Daniel Roberson Huntersville NC 237 44 107 26:06.4 26:06.4 8:24/M
18 Kyle Pierce Denver NC 224 40 120 26:35.7 26:35.7 8:33/M
19 Rob Ahearn Davidson NC 325 49 129 27:15.7 27:15.7 8:46/M
20 Allen Westbrook Hunersville NC 312 44 130 27:17.2 27:17.2 8:46/M
21 Don Hannam Huntersville NC 133 47 141 28:05.9 28:05.9 9:02/M
22 John Tate Cornelius NC 276 46 149 28:57.1 28:57.1 9:19/M
23 Rick Wilz Charlotte NC 319 47 158 29:23.2 29:23.2 9:27/M
24 Jeffrey Hendrix Davidson NC 147 43 162 29:32.4 29:32.4 9:30/M
25 Trey Small Davidson NC 259 41 163 29:33.3 29:33.3 9:30/M
26 marc leatherwood charlotte NC 170 49 164 29:36.7 29:36.7 9:31/M
27 Danny Chung Huntersville NC 395 47 182 30:22.8 30:22.8 9:46/M
28 David Garren Mooresville NC 344 44 193 31:11.5 31:11.5 10:02/M
29 Tim Davis huntersville NC 70 44 195 31:26.4 31:26.4 10:06/M
30 Chad Solomonson Huntersville NC 263 44 198 31:30.1 31:30.1 10:08/M
31 Matthew Hoag Mooresville NC 367 43 200 31:32.7 31:32.7 10:08/M
32 Phillips Bragg Huntersville NC 31 44 209 31:53.7 31:53.7 10:15/M
33 topher Grennan cornelius NC 113 45 226 33:04.1 33:04.1 10:38/M
34 Ron Steranko Mooresville NC 267 48 235 33:46.0 33:46.0 10:51/M
35 Sajal Sachdev Huntersville NC 244 42 253 35:28.0 35:28.0 11:24/M
36 Dave Fay Huntersville NC 90 45 279 36:35.5 36:35.5 11:46/M
37 Scott Gribbins Stanley NC 118 45 310 40:15.5 40:15.5 12:57/M
38 Michael Davis Mooresville NC 67 42 321 43:46.8 43:46.8 14:04/M
39 Brian McGinnis Mount Holly NC 181 40 333 45:40.2 45:40.2 14:41/M
40 Brian Esque Davidson NC 86 46 336 46:29.0 46:29.0 14:57/M
41 Erik LaRuffa Davids NC 167 49 346 48:43.6 48:43.6 15:40/M
42 David Thomas Huntersville NC 391 43 355 53:08.8 53:08.8 17:05/M
43 Eric Rowles Huntersville NC 242 44 359 53:38.3 53:38.3 17:15/M
Top

Female 50 to 59

Place Name City Bib No Age Overall Chip Time Gun Time Pace
1 Janet Harrison Huntersville NC 139 54 137 27:54.9 27:54.9 8:58/M
2 Debbie Davidson Huntersville NC 65 53 147 28:38.8 28:38.8 9:12/M
3 Kirsten Hall Charlotte NC 130 50 153 29:06.4 29:06.4 9:21/M
4 Mia Baugher Charlotte NC 18 50 181 30:21.4 30:21.4 9:46/M
5 Sandra Hettwer Cirnelius NC 148 51 201 31:37.0 31:37.0 10:10/M
6 Michele glancy Charlotte NC 98 53 203 31:40.3 31:40.3 10:11/M
7 Amy Schneider Huntersville NC 246 50 208 31:53.2 31:53.2 10:15/M
8 Kathy Phyfer Davidson NC 220 55 216 32:12.3 32:12.3 10:21/M
9 Dee Dee Holland Huntersville NC 341 56 233 33:20.4 33:20.4 10:43/M
10 Nancy Ellington Davidson NC 82 51 238 34:04.2 34:04.2 10:57/M
11 Wendy Cordero Huntersville NC 56 51 251 35:26.9 35:26.9 11:24/M
12 Gail Spach Davidson NC 265 52 262 35:54.3 35:54.3 11:33/M
13 angela rivera Huntersville NC 234 53 284 37:20.2 37:20.2 12:00/M
14 Holly Moton Davidson NC 197 52 291 38:04.7 38:04.7 12:14/M
15 Terry Skerpon Davidson NC 256 56 294 38:13.9 38:13.9 12:17/M
16 Sally Ashworth Cornelius NC 8 54 299 39:08.3 39:08.3 12:35/M
17 Elizabeth Gregory Cornelius NC 106 52 301 39:12.4 39:12.4 12:36/M
18 Wanda Schramm Cary NC 248 55 344 48:14.7 48:14.7 15:31/M
19 Gina Bottone Cornelius NC 26 55 351 50:34.8 50:34.8 16:16/M
Top

Male 50 to 59

Place Name City Bib No Age Overall Chip Time Gun Time Pace
1 Martin Harrison Davidson NC 369 54 4 18:35.5 18:35.5 5:59/M
2 Neil Heesch Cornelius NC 143 50 14 20:01.7 20:01.7 6:26/M
3 John Lundsten Cornelius NC 171 52 41 22:29.1 22:29.1 7:14/M
4 Kelly Ross Davidson NC 383 54 48 22:41.6 22:41.6 7:18/M
5 John Diggs Cornelius NC 356 52 87 25:16.0 25:16.0 8:07/M
6 Gary Howard Kings Mountain NC 150 51 112 26:21.2 26:21.2 8:28/M
7 Charlie Haines Charlotte NC 126 55 118 26:30.9 26:30.9 8:31/M
8 Danny Nethken Charlotee NC 203 55 139 28:03.7 28:03.7 9:01/M
9 Jim Murphy Davidson NC 201 59 145 28:17.1 28:17.1 9:06/M
10 Doug Ostapko Huntersville NC 209 54 146 28:21.2 28:21.2 9:07/M
11 Scott Baugher Charlotte NC 19 50 177 30:20.0 30:20.0 9:45/M
12 Ray Williams Huntersville NC 371 50 213 31:55.6 31:55.6 10:16/M
13 Patrick Vesely Charlotte NC 300 52 215 32:01.2 32:01.2 10:18/M
14 Christian D'Esterre Indian Trail NC 73 52 227 33:05.1 33:05.1 10:38/M
15 Scott Blocker Denver NC 22 50 243 34:41.2 34:41.2 11:09/M
16 Nigel Duckworth Huntersville NC 77 51 248 35:13.0 35:13.0 11:19/M
17 Gordon Gray Huntersville NC 104 51 265 35:57.6 35:57.6 11:34/M
18 Greg Moton Davidson NC 196 55 281 36:46.1 36:46.1 11:49/M
19 Geoff Waldau Davidson NC 365 50 306 39:47.0 39:47.0 12:48/M
20 Ken Miller West Allis WI 190 58 317 41:59.3 41:59.3 13:30/M
21 John Schramm Cary NC 247 56 345 48:15.4 48:15.4 15:31/M
22 Chip Bottone Cornelius NC 25 55 350 50:34.4 50:34.4 16:16/M
Top

Female 60 and Over

Place Name City Bib No Age Overall Chip Time Gun Time Pace
1 Pamela Ploger Davidson NC 225 64 148 28:43.1 28:43.1 9:14/M
2 Tonia Shelton Huntersville NC 250 61 192 31:06.0 31:06.0 10:00/M
3 Laurel Telleson 359 99 210 31:54.3 31:54.3 10:15/M
4 Robin Shook Huntersville NC 252 61 212 31:55.4 31:55.4 10:16/M
5 Mary Wells Dallas TX 309 65 313 41:05.7 41:05.7 13:13/M
6 Barbara O'Reilly Mooresville NC 208 66 325 43:59.5 43:59.5 14:09/M
7 Cathy Hancock San Jose CA 132 61 356 53:26.9 53:26.9 17:11/M
Top

Male 60 and Over

Place Name City Bib No Age Overall Chip Time Gun Time Pace
1 Jim Christol Davidson NC 44 68 40 22:23.6 22:23.6 7:12/M
2 Tom Cotter Davidson NC 363 62 134 27:40.2 27:40.2 8:54/M
3 David Buck 373 99 144 28:14.2 28:14.2 9:05/M
4 Chris Churchill Huntersville NC 45 65 222 32:48.5 32:48.5 10:33/M
5 Mel Andersen Chapel Hill NC 7 70 341 47:03.6 47:03.6 15:08/M